createdAt,value
2022-11-01T00:01:16.051Z,11.58
2022-11-01T00:03:42.534Z,11.50
2022-11-01T00:06:08.982Z,11.38
2022-11-01T00:08:35.490Z,11.38
2022-11-01T00:11:07.348Z,11.28
2022-11-01T00:13:33.884Z,11.19
2022-11-01T00:16:00.505Z,11.31
2022-11-01T00:18:27.501Z,11.32
2022-11-01T00:20:53.902Z,11.35
2022-11-01T00:23:20.684Z,11.20
2022-11-01T00:25:47.474Z,11.26
2022-11-01T00:28:13.944Z,11.34
2022-11-01T00:30:40.966Z,11.26
2022-11-01T00:33:07.940Z,11.26
2022-11-01T00:35:36.909Z,11.24
2022-11-01T00:38:04.237Z,11.27
2022-11-01T00:40:31.079Z,11.25
2022-11-01T00:42:57.539Z,11.37
2022-11-01T00:45:23.975Z,11.66
2022-11-01T00:47:50.413Z,11.64
2022-11-01T00:50:16.804Z,11.59
2022-11-01T00:52:43.341Z,11.61
2022-11-01T00:55:09.875Z,11.60
2022-11-01T00:57:36.408Z,11.57
2022-11-01T01:00:04.645Z,11.31
2022-11-01T01:02:31.141Z,11.25
2022-11-01T01:04:57.640Z,11.36
2022-11-01T01:07:24.072Z,11.25
2022-11-01T01:09:50.484Z,11.17
2022-11-01T01:12:16.859Z,11.22
2022-11-01T01:14:43.340Z,11.16
2022-11-01T01:17:09.784Z,11.14
2022-11-01T01:19:36.222Z,11.22
2022-11-01T01:22:02.938Z,11.05
2022-11-01T01:24:29.455Z,11.25
2022-11-01T01:26:55.841Z,11.16
2022-11-01T01:29:22.437Z,11.27
2022-11-01T01:31:50.975Z,11.39
2022-11-01T01:34:18.315Z,11.65
2022-11-01T01:36:46.400Z,11.72
2022-11-01T01:39:12.830Z,11.60
2022-11-01T01:41:57.438Z,11.76
2022-11-01T01:45:14.412Z,11.76
2022-11-01T01:47:44.181Z,11.69
2022-11-01T01:50:15.240Z,11.60
2022-11-01T01:53:31.555Z,11.68
2022-11-01T01:56:02.893Z,11.63
2022-11-01T01:58:33.136Z,11.58
2022-11-01T02:00:59.911Z,11.58
2022-11-01T02:03:32.057Z,11.43
2022-11-01T02:09:39.703Z,11.40
2022-11-01T02:12:06.762Z,11.28
2022-11-01T02:14:33.304Z,11.36
2022-11-01T02:17:27.116Z,11.41
2022-11-01T02:20:08.546Z,11.45
2022-11-01T02:22:46.852Z,11.26
2022-11-01T02:25:32.151Z,11.33
2022-11-01T02:28:25.750Z,11.28
2022-11-01T02:31:10.097Z,11.25
2022-11-01T02:33:52.366Z,11.22
2022-11-01T02:36:36.324Z,11.19
2022-11-01T02:39:11.095Z,11.12
2022-11-01T02:41:51.395Z,11.18
2022-11-01T02:44:27.041Z,11.12
2022-11-01T02:47:01.404Z,11.11
2022-11-01T02:49:36.274Z,11.02
2022-11-01T02:52:05.162Z,11.15
2022-11-01T02:54:37.472Z,11.16
2022-11-01T02:57:24.246Z,11.07
2022-11-01T02:59:50.781Z,11.17
2022-11-01T03:02:17.179Z,11.18
2022-11-01T03:04:43.748Z,11.31
2022-11-01T03:07:13.382Z,11.20
2022-11-01T03:09:40.756Z,11.33
2022-11-01T03:12:22.760Z,11.25
2022-11-01T03:15:05.122Z,11.37
2022-11-01T03:17:41.131Z,11.31
2022-11-01T03:20:17.285Z,11.20
2022-11-01T03:22:55.404Z,11.18
2022-11-01T03:25:44.216Z,11.26
2022-11-01T03:28:25.123Z,10.97
2022-11-01T03:31:09.602Z,11.15
2022-11-01T03:33:42.617Z,11.19
2022-11-01T03:36:15.487Z,11.08
2022-11-01T03:38:48.799Z,11.13
2022-11-01T03:41:18.744Z,11.11
2022-11-01T03:43:47.705Z,11.11
2022-11-01T03:46:15.568Z,11.08
2022-11-01T03:48:42.000Z,11.11
2022-11-01T03:51:08.575Z,11.10
2022-11-01T03:53:35.042Z,11.07
2022-11-01T03:56:01.772Z,11.00
2022-11-01T03:58:41.536Z,11.01
2022-11-01T04:01:14.037Z,11.01
2022-11-01T04:03:41.209Z,11.04
2022-11-01T04:06:08.402Z,10.95
2022-11-01T04:08:36.805Z,10.95
2022-11-01T04:11:04.305Z,10.81
2022-11-01T04:13:30.814Z,10.81
2022-11-01T04:16:16.983Z,10.88
2022-11-01T04:19:02.148Z,10.84
2022-11-01T04:21:29.742Z,10.84
2022-11-01T04:23:56.201Z,10.94
2022-11-01T04:26:23.920Z,10.69
2022-11-01T04:28:57.359Z,10.58
2022-11-01T04:31:30.698Z,10.86
2022-11-01T04:33:58.419Z,10.89
2022-11-01T04:36:25.196Z,10.91
2022-11-01T04:38:55.555Z,10.84
2022-11-01T04:41:27.588Z,10.82
2022-11-01T04:43:56.217Z,10.90
2022-11-01T04:46:23.111Z,10.93
2022-11-01T04:48:50.047Z,10.99
2022-11-01T04:51:16.525Z,10.90
2022-11-01T04:53:42.961Z,10.91
2022-11-01T04:56:12.366Z,10.69
2022-11-01T04:58:43.112Z,10.81
2022-11-01T05:01:13.334Z,10.44
2022-11-01T05:03:39.865Z,10.61
2022-11-01T05:06:06.656Z,10.70
2022-11-01T05:08:33.210Z,10.42
2022-11-01T05:10:59.707Z,10.25
2022-11-01T05:13:26.149Z,10.56
2022-11-01T05:16:17.847Z,10.64
2022-11-01T05:18:41.748Z,10.35
2022-11-01T05:21:08.148Z,10.53
2022-11-01T05:23:34.597Z,10.41
2022-11-01T05:26:01.034Z,10.70
2022-11-01T05:28:27.449Z,10.04
2022-11-01T05:30:53.900Z,10.31
2022-11-01T05:33:20.331Z,10.31
2022-11-01T05:35:46.804Z,10.27
2022-11-01T05:38:13.220Z,10.15
2022-11-01T05:40:39.619Z,9.99
2022-11-01T05:43:06.230Z,9.56
2022-11-01T05:45:32.745Z,9.98
2022-11-01T05:48:03.599Z,9.70
2022-11-01T05:50:30.616Z,9.63
2022-11-01T05:53:07.753Z,9.80
2022-11-01T05:55:34.902Z,9.75
2022-11-01T05:58:01.502Z,9.91
2022-11-01T06:00:28.132Z,9.72
2022-11-01T06:02:57.629Z,9.79
2022-11-01T06:05:24.339Z,9.80
2022-11-01T06:07:50.831Z,9.74
2022-11-01T06:10:17.295Z,9.49
2022-11-01T06:12:43.799Z,9.92
2022-11-01T06:15:10.725Z,10.07
2022-11-01T06:17:37.351Z,10.04
2022-11-01T06:20:04.144Z,10.20
2022-11-01T06:22:30.556Z,9.76
2022-11-01T06:24:56.985Z,10.22
2022-11-01T06:27:23.429Z,10.43
2022-11-01T06:29:49.865Z,10.53
2022-11-01T06:32:16.498Z,10.42
2022-11-01T06:34:44.896Z,10.29
2022-11-01T06:37:11.803Z,10.17
2022-11-01T06:39:38.334Z,10.22
2022-11-01T06:42:05.631Z,10.27
2022-11-01T06:44:32.233Z,9.96
2022-11-01T06:46:58.668Z,9.92
2022-11-01T06:49:25.358Z,9.98
2022-11-01T06:51:51.819Z,10.36
2022-11-01T06:54:18.279Z,10.43
2022-11-01T06:56:47.128Z,10.67
2022-11-01T06:59:14.847Z,10.72
2022-11-01T07:01:41.377Z,10.84
2022-11-01T07:04:08.103Z,10.45
2022-11-01T07:06:34.817Z,10.25
2022-11-01T07:09:01.518Z,10.08
2022-11-01T07:11:31.412Z,10.17
2022-11-01T07:13:59.371Z,9.99
2022-11-01T07:16:26.365Z,9.98
2022-11-01T07:18:52.906Z,10.20
2022-11-01T07:21:19.524Z,10.30
2022-11-01T07:23:45.997Z,10.85
2022-11-01T07:26:12.487Z,10.46
2022-11-01T07:28:39.572Z,10.48
2022-11-01T07:31:06.785Z,10.64
2022-11-01T07:33:33.373Z,10.46
2022-11-01T07:36:01.419Z,10.57
2022-11-01T07:38:27.872Z,10.34
2022-11-01T07:40:54.718Z,10.42
2022-11-01T07:43:21.241Z,10.62
2022-11-01T07:45:48.362Z,10.56
2022-11-01T07:48:17.162Z,10.52
2022-11-01T07:50:44.396Z,10.52
2022-11-01T07:53:16.613Z,10.58
2022-11-01T07:55:44.252Z,10.59
2022-11-01T07:58:11.756Z,10.63
2022-11-01T08:00:39.764Z,10.57
2022-11-01T08:03:22.208Z,10.80
2022-11-01T08:05:48.845Z,10.71
2022-11-01T08:08:16.256Z,10.60
2022-11-01T08:10:42.904Z,10.91
2022-11-01T08:13:19.953Z,10.90
2022-11-01T08:15:47.640Z,11.19
2022-11-01T08:18:14.851Z,11.25
2022-11-01T08:20:41.522Z,10.93
2022-11-01T08:23:08.863Z,11.14
2022-11-01T08:25:35.679Z,10.73
2022-11-01T08:28:04.410Z,11.14
2022-11-01T08:30:32.138Z,11.11
2022-11-01T08:33:02.581Z,11.04
2022-11-01T08:35:30.008Z,11.27
2022-11-01T08:37:56.689Z,11.41
2022-11-01T08:40:23.143Z,11.44
2022-11-01T08:42:49.619Z,11.44
2022-11-01T08:45:16.815Z,11.95
2022-11-01T08:47:43.755Z,11.85
2022-11-01T08:50:13.129Z,12.21
2022-11-01T08:52:40.246Z,12.36
2022-11-01T08:55:08.180Z,12.46
2022-11-01T08:57:34.655Z,12.70
2022-11-01T09:00:01.578Z,12.34
2022-11-01T09:02:28.217Z,12.45
2022-11-01T09:04:54.735Z,12.68
2022-11-01T09:07:21.205Z,12.85
2022-11-01T09:09:47.647Z,13.05
2022-11-01T09:12:14.888Z,12.98
2022-11-01T09:14:41.620Z,13.04
2022-11-01T09:17:08.023Z,13.40
2022-11-01T09:19:34.496Z,13.71
2022-11-01T09:22:00.910Z,13.97
2022-11-01T09:24:27.314Z,14.11
2022-11-01T09:26:53.840Z,14.84
2022-11-01T09:29:21.295Z,14.93
2022-11-01T09:31:51.383Z,14.45
2022-11-01T09:34:18.013Z,14.73
2022-11-01T09:36:44.421Z,14.04
2022-11-01T09:39:10.920Z,13.72
2022-11-01T09:41:45.304Z,13.67
2022-11-01T09:44:16.449Z,13.61
2022-11-01T09:46:55.409Z,13.51
2022-11-01T09:49:27.841Z,13.71
2022-11-01T09:51:55.161Z,13.54
2022-11-01T09:54:24.168Z,13.75
2022-11-01T09:57:18.269Z,13.45
2022-11-01T10:00:03.897Z,13.48
2022-11-01T10:02:42.231Z,13.03
2022-11-01T10:05:18.941Z,13.39
2022-11-01T10:08:02.392Z,13.21
2022-11-01T10:10:47.036Z,13.50
2022-11-01T10:13:35.212Z,13.71
2022-11-01T10:16:08.959Z,13.45
2022-11-01T10:19:04.475Z,13.69
2022-11-01T10:22:06.101Z,13.27
2022-11-01T10:24:45.389Z,13.61
2022-11-01T10:27:34.562Z,13.59
2022-11-01T10:30:07.520Z,13.46
2022-11-01T10:32:40.713Z,13.57
2022-11-01T10:35:26.297Z,13.18
2022-11-01T10:38:41.843Z,13.25
2022-11-01T10:41:01.367Z,13.37
2022-11-01T10:43:28.383Z,13.39
2022-11-01T10:45:57.710Z,13.23
2022-11-01T10:48:30.372Z,13.47
2022-11-01T10:51:01.149Z,13.58
2022-11-01T10:53:38.855Z,13.64
2022-11-01T10:56:12.431Z,13.94
2022-11-01T10:58:49.223Z,14.18
2022-11-01T11:01:21.918Z,14.33
2022-11-01T11:03:50.274Z,14.76
2022-11-01T11:06:16.971Z,14.99
2022-11-01T11:08:48.906Z,16.16
2022-11-01T11:11:17.566Z,16.28
2022-11-01T11:13:53.200Z,16.46
2022-11-01T11:16:33.682Z,16.58
2022-11-01T11:19:21.336Z,16.02
2022-11-01T11:21:50.161Z,16.12
2022-11-01T11:24:20.067Z,15.62
2022-11-01T11:26:53.092Z,15.33
2022-11-01T11:29:49.167Z,15.07
2022-11-01T11:32:20.135Z,14.65
2022-11-01T11:35:04.380Z,14.60
2022-11-01T11:37:34.781Z,15.02
2022-11-01T11:40:25.326Z,14.64
2022-11-01T11:42:53.994Z,14.75
2022-11-01T11:45:30.280Z,14.77
2022-11-01T11:48:15.752Z,14.72
2022-11-01T11:50:43.623Z,14.73
2022-11-01T11:53:29.419Z,14.83
2022-11-01T11:55:58.724Z,14.51
2022-11-01T11:58:40.696Z,14.61
2022-11-01T12:01:11.949Z,14.69
2022-11-01T12:03:53.378Z,14.37
2022-11-01T12:06:25.626Z,14.38
2022-11-01T12:08:56.917Z,14.59
2022-11-01T12:11:25.171Z,14.57
2022-11-01T12:14:19.645Z,14.46
2022-11-01T12:16:46.195Z,14.59
2022-11-01T12:19:28.726Z,14.73
2022-11-01T12:22:00.280Z,14.93
2022-11-01T12:24:43.303Z,14.64
2022-11-01T12:27:15.958Z,14.70
2022-11-01T12:29:50.461Z,14.67
2022-11-01T12:32:25.265Z,14.52
2022-11-01T12:34:53.066Z,14.61
2022-11-01T12:37:43.768Z,14.51
2022-11-01T12:40:18.960Z,14.61
2022-11-01T12:42:57.399Z,14.43
2022-11-01T12:45:26.596Z,14.50
2022-11-01T12:48:02.478Z,14.32
2022-11-01T12:50:47.498Z,14.18
2022-11-01T12:53:22.021Z,14.22
2022-11-01T12:55:48.639Z,14.31
2022-11-01T12:58:19.015Z,14.40
2022-11-01T13:00:54.850Z,14.35
2022-11-01T13:03:27.014Z,14.43
2022-11-01T13:05:59.386Z,14.68
2022-11-01T13:09:01.979Z,14.50
2022-11-01T13:11:59.383Z,14.61
2022-11-01T13:15:10.811Z,14.87
2022-11-01T13:18:06.644Z,14.96
2022-11-01T13:20:46.335Z,15.07
2022-11-01T13:23:34.980Z,15.02
2022-11-01T13:26:10.185Z,14.88
2022-11-01T13:28:47.442Z,14.98
2022-11-01T13:31:32.311Z,14.93
2022-11-01T13:34:11.654Z,14.95
2022-11-01T13:36:53.387Z,15.13
2022-11-01T13:39:19.881Z,14.89
2022-11-01T13:42:04.390Z,14.99
2022-11-01T13:44:38.562Z,15.25
2022-11-01T13:47:55.615Z,14.63
2022-11-01T13:50:54.189Z,14.72
2022-11-01T13:53:29.724Z,14.69
2022-11-01T13:56:02.284Z,14.73
2022-11-01T13:58:28.976Z,14.73
2022-11-01T14:00:56.264Z,14.79
2022-11-01T14:03:29.678Z,14.79
2022-11-01T14:09:28.282Z,14.64
2022-11-01T14:12:04.726Z,14.70
2022-11-01T14:14:31.416Z,14.77
2022-11-01T14:17:22.467Z,14.49
2022-11-01T14:20:14.461Z,14.66
2022-11-01T14:22:45.341Z,14.59
2022-11-01T14:25:15.067Z,14.79
2022-11-01T14:27:50.389Z,14.79
2022-11-01T14:30:29.809Z,14.61
2022-11-01T14:32:59.325Z,14.70
2022-11-01T14:35:35.430Z,14.97
2022-11-01T14:38:11.894Z,14.74
2022-11-01T14:40:43.763Z,14.83
2022-11-01T14:43:22.895Z,14.71
2022-11-01T14:46:03.131Z,14.95
2022-11-01T14:48:46.163Z,14.98
2022-11-01T14:51:21.078Z,14.74
2022-11-01T14:53:52.868Z,14.64
2022-11-01T14:56:22.216Z,14.37
2022-11-01T14:58:48.989Z,14.43
2022-11-01T15:01:23.359Z,14.45
2022-11-01T15:04:00.179Z,14.59
2022-11-01T15:06:28.977Z,14.50
2022-11-01T15:09:00.257Z,14.47
2022-11-01T15:11:29.043Z,14.33
2022-11-01T15:13:57.035Z,14.37
2022-11-01T15:16:26.806Z,14.28
2022-11-01T15:18:57.699Z,14.24
2022-11-01T15:21:30.613Z,14.24
2022-11-01T15:23:59.109Z,14.30
2022-11-01T15:26:29.741Z,14.21
2022-11-01T15:29:00.163Z,14.13
2022-11-01T15:31:27.648Z,14.02
2022-11-01T15:34:01.955Z,13.86
2022-11-01T15:36:38.526Z,14.01
2022-11-01T15:39:21.170Z,13.99
2022-11-01T15:41:48.519Z,13.86
2022-11-01T15:44:29.956Z,13.77
2022-11-01T15:47:01.772Z,13.80
2022-11-01T15:49:37.581Z,13.82
2022-11-01T15:52:15.208Z,13.79
2022-11-01T15:54:47.360Z,13.76
2022-11-01T15:57:25.172Z,13.75
2022-11-01T16:00:06.284Z,13.66
2022-11-01T16:02:40.858Z,13.70
2022-11-01T16:05:12.096Z,13.69
2022-11-01T16:07:39.530Z,13.70
2022-11-01T16:10:09.087Z,13.58
2022-11-01T16:12:38.803Z,13.56
2022-11-01T16:15:07.489Z,13.56
2022-11-01T16:17:38.970Z,13.55
2022-11-01T16:20:47.132Z,13.40
2022-11-01T16:23:32.221Z,13.49
2022-11-01T16:26:07.880Z,13.43
2022-11-01T16:28:44.034Z,13.35
2022-11-01T16:31:30.713Z,13.42
2022-11-01T16:33:57.298Z,13.44
2022-11-01T16:36:36.683Z,13.40
2022-11-01T16:39:26.209Z,13.35
2022-11-01T16:41:52.982Z,13.20
2022-11-01T16:44:20.360Z,13.13
2022-11-01T16:46:47.395Z,13.19
2022-11-01T16:49:13.879Z,13.11
2022-11-01T16:51:40.924Z,13.16
2022-11-01T16:54:10.529Z,13.11
2022-11-01T16:56:40.839Z,12.96
2022-11-01T16:59:36.878Z,12.98
2022-11-01T17:02:16.066Z,13.06
2022-11-01T17:04:44.249Z,13.02
2022-11-01T17:07:12.002Z,12.98
2022-11-01T17:09:39.654Z,13.24
2022-11-01T17:12:07.030Z,13.31
2022-11-01T17:14:35.771Z,13.30
2022-11-01T17:17:08.481Z,13.16
2022-11-01T17:19:38.247Z,13.11
2022-11-01T17:22:11.765Z,13.09
2022-11-01T17:24:38.688Z,13.18
2022-11-01T17:27:05.553Z,13.05
2022-11-01T17:29:32.910Z,13.10
2022-11-01T17:32:01.047Z,13.02
2022-11-01T17:34:28.871Z,13.05
2022-11-01T17:36:57.309Z,13.02
2022-11-01T17:39:27.453Z,12.84
2022-11-01T17:41:54.118Z,12.88
2022-11-01T17:44:20.590Z,12.80
2022-11-01T17:46:48.196Z,13.00
2022-11-01T17:49:16.087Z,12.80
2022-11-01T17:51:43.522Z,12.90
2022-11-01T17:54:10.523Z,12.86
2022-11-01T17:56:37.250Z,12.87
2022-11-01T17:59:04.127Z,12.80
2022-11-01T18:01:30.687Z,12.88
2022-11-01T18:03:57.408Z,12.86
2022-11-01T18:06:23.951Z,12.90
2022-11-01T18:08:51.823Z,12.89
2022-11-01T18:11:38.132Z,12.93
2022-11-01T18:14:17.158Z,12.81
2022-11-01T18:16:50.644Z,12.91
2022-11-01T18:19:23.189Z,12.87
2022-11-01T18:22:14.729Z,12.78
2022-11-01T18:24:51.858Z,12.67
2022-11-01T18:27:24.211Z,12.78
2022-11-01T18:29:52.128Z,12.71
2022-11-01T18:32:34.657Z,12.64
2022-11-01T18:35:31.834Z,12.61
2022-11-01T18:38:23.429Z,12.51
2022-11-01T18:41:00.402Z,12.54
2022-11-01T18:43:32.916Z,12.49
2022-11-01T18:48:47.818Z,12.52
2022-11-01T18:51:22.327Z,12.53
2022-11-01T18:53:54.426Z,12.54
2022-11-01T18:56:22.910Z,12.45
2022-11-01T18:58:52.250Z,12.47
2022-11-01T19:01:21.531Z,12.27
2022-11-01T19:04:17.124Z,12.25
2022-11-01T19:06:43.684Z,12.17
2022-11-01T19:09:22.908Z,12.07
2022-11-01T19:11:57.647Z,12.08
2022-11-01T19:14:24.265Z,11.97
2022-11-01T19:16:52.783Z,12.01
2022-11-01T19:19:20.872Z,12.02
2022-11-01T19:21:47.620Z,12.05
2022-11-01T19:24:34.425Z,11.95
2022-11-01T19:27:02.081Z,12.02
2022-11-01T19:29:33.125Z,11.82
2022-11-01T19:32:02.385Z,11.86
2022-11-01T19:34:40.996Z,11.93
2022-11-01T19:37:23.946Z,11.85
2022-11-01T19:39:50.617Z,11.84
2022-11-01T19:42:39.068Z,11.81
2022-11-01T19:45:14.412Z,11.72
2022-11-01T19:47:46.266Z,11.65
2022-11-01T19:50:17.777Z,11.64
2022-11-01T19:52:47.573Z,11.52
2022-11-01T19:55:32.987Z,11.40
2022-11-01T19:57:59.461Z,11.28
2022-11-01T20:00:29.090Z,11.44
2022-11-01T20:03:00.079Z,11.39
2022-11-01T20:05:36.509Z,11.48
2022-11-01T20:08:18.290Z,11.40
2022-11-01T20:10:44.597Z,11.45
2022-11-01T20:13:11.040Z,11.25
2022-11-01T20:15:37.547Z,11.19
2022-11-01T20:18:04.318Z,11.34
2022-11-01T20:20:32.396Z,11.37
2022-11-01T20:23:20.341Z,11.42
2022-11-01T20:25:45.921Z,11.51
2022-11-01T20:28:12.388Z,11.45
2022-11-01T20:30:38.814Z,11.52
2022-11-01T20:33:05.762Z,11.53
2022-11-01T20:35:32.512Z,11.45
2022-11-01T20:37:58.955Z,11.37
2022-11-01T20:40:25.427Z,11.36
2022-11-01T20:42:52.543Z,11.22
2022-11-01T20:45:18.995Z,11.29
2022-11-01T20:47:46.571Z,11.26
2022-11-01T20:50:15.107Z,11.14
2022-11-01T20:52:42.501Z,11.27
2022-11-01T20:55:11.085Z,11.11
2022-11-01T20:57:38.571Z,11.05
2022-11-01T21:00:06.370Z,11.11
2022-11-01T21:02:32.989Z,10.99
2022-11-01T21:05:14.930Z,11.01
2022-11-01T21:07:46.822Z,10.72
2022-11-01T21:10:31.189Z,10.84
2022-11-01T21:13:00.165Z,10.87
2022-11-01T21:15:27.469Z,10.90
2022-11-01T21:18:12.029Z,10.79
2022-11-01T21:20:40.674Z,10.78
2022-11-01T21:23:36.445Z,10.79
2022-11-01T21:26:22.396Z,10.57
2022-11-01T21:28:58.384Z,10.74
2022-11-01T21:31:33.257Z,10.48
2022-11-01T21:34:11.866Z,10.66
2022-11-01T21:36:47.787Z,10.66
2022-11-01T21:39:15.217Z,10.68
2022-11-01T21:41:44.698Z,10.87
2022-11-01T21:44:33.727Z,10.77
2022-11-01T21:47:08.960Z,10.59
2022-11-01T21:49:36.609Z,10.66
2022-11-01T21:52:05.647Z,10.77
2022-11-01T21:54:33.982Z,10.76
2022-11-01T21:57:01.450Z,10.71
2022-11-01T21:59:28.521Z,10.52
2022-11-01T22:01:56.587Z,10.53
2022-11-01T22:04:28.518Z,10.49
2022-11-01T22:06:59.665Z,10.55
2022-11-01T22:09:26.757Z,10.54
2022-11-01T22:11:53.900Z,10.44
2022-11-01T22:14:20.875Z,10.35
2022-11-01T22:16:47.545Z,10.48
2022-11-01T22:19:14.261Z,10.26
2022-11-01T22:21:40.708Z,10.29
2022-11-01T22:24:07.541Z,10.23
2022-11-01T22:26:33.987Z,10.12
2022-11-01T22:29:00.440Z,10.04
2022-11-01T22:31:26.893Z,9.97
2022-11-01T22:33:54.755Z,10.00
2022-11-01T22:36:30.403Z,10.10
2022-11-01T22:39:01.841Z,10.04
2022-11-01T22:41:34.140Z,9.77
2022-11-01T22:44:10.061Z,9.88
2022-11-01T22:46:58.866Z,9.90
2022-11-01T22:49:35.379Z,9.72
2022-11-01T22:52:22.345Z,9.88
2022-11-01T22:54:56.867Z,9.93
2022-11-01T22:57:34.580Z,9.95
2022-11-01T23:00:27.364Z,9.93
2022-11-01T23:03:02.405Z,9.86
2022-11-01T23:05:29.110Z,9.88
2022-11-01T23:07:58.073Z,9.79
2022-11-01T23:10:33.136Z,9.80
2022-11-01T23:13:34.286Z,9.78
2022-11-01T23:16:20.580Z,9.83
2022-11-01T23:18:47.303Z,9.82
2022-11-01T23:21:13.733Z,9.83
2022-11-01T23:23:43.407Z,9.70
2022-11-01T23:26:11.360Z,9.72
2022-11-01T23:28:44.052Z,9.69
2022-11-01T23:31:11.503Z,9.60
2022-11-01T23:33:41.527Z,9.53
2022-11-01T23:36:17.611Z,9.44
2022-11-01T23:38:48.238Z,9.55
2022-11-01T23:41:21.692Z,9.38
2022-11-01T23:43:48.910Z,9.50
2022-11-01T23:46:15.415Z,9.52
2022-11-01T23:48:44.398Z,9.35
2022-11-01T23:51:19.591Z,9.30
2022-11-01T23:53:48.687Z,9.30
2022-11-01T23:56:19.595Z,9.27
2022-11-01T23:58:50.644Z,9.17
